sensor_id;sensor_type;location;lat;lon;timestamp;pressure;altitude;pressure_sealevel;temperature;humidity
19827;BME280;10074;52.018;4.726;2023-04-28T00:01:24;46247.31;;;-144.79;100.00
19827;BME280;10074;52.018;4.726;2023-04-28T00:06:25;46231.28;;;-144.79;100.00
19827;BME280;10074;52.018;4.726;2023-04-28T00:11:25;46243.31;;;-144.79;100.00
19827;BME280;10074;52.018;4.726;2023-04-28T00:16:25;46251.34;;;-144.79;100.00
19827;BME280;10074;52.018;4.726;2023-04-28T00:21:26;46217.25;;;-144.79;100.00
19827;BME280;10074;52.018;4.726;2023-04-28T00:26:27;46217.25;;;-144.79;100.00
19827;BME280;10074;52.018;4.726;2023-04-28T00:31:28;46199.19;;;-144.79;100.00
19827;BME280;10074;52.018;4.726;2023-04-28T00:36:28;46243.31;;;-144.79;100.00
19827;BME280;10074;52.018;4.726;2023-04-28T00:41:33;46197.19;;;-144.79;100.00
19827;BME280;10074;52.018;4.726;2023-04-28T00:46:34;46215.25;;;-144.79;100.00
19827;BME280;10074;52.018;4.726;2023-04-28T00:51:34;46229.28;;;-144.79;100.00
19827;BME280;10074;52.018;4.726;2023-04-28T00:56:35;46199.19;;;-144.79;100.00
19827;BME280;10074;52.018;4.726;2023-04-28T01:01:35;46189.19;;;-144.79;100.00
19827;BME280;10074;52.018;4.726;2023-04-28T01:06:36;46219.25;;;-144.79;100.00
19827;BME280;10074;52.018;4.726;2023-04-28T01:11:37;46207.22;;;-144.79;100.00
19827;BME280;10074;52.018;4.726;2023-04-28T01:16:38;46183.16;;;-144.79;100.00
19827;BME280;10074;52.018;4.726;2023-04-28T01:21:38;46195.19;;;-144.79;100.00
19827;BME280;10074;52.018;4.726;2023-04-28T01:26:38;46207.22;;;-144.79;100.00
19827;BME280;10074;52.018;4.726;2023-04-28T01:31:39;46185.16;;;-144.79;100.00
19827;BME280;10074;52.018;4.726;2023-04-28T01:36:41;46187.19;;;-144.79;100.00
19827;BME280;10074;52.018;4.726;2023-04-28T01:41:41;46187.19;;;-144.79;100.00
19827;BME280;10074;52.018;4.726;2023-04-28T01:46:41;46177.16;;;-144.79;100.00
19827;BME280;10074;52.018;4.726;2023-04-28T01:51:42;46183.16;;;-144.79;100.00
19827;BME280;10074;52.018;4.726;2023-04-28T01:56:42;46143.06;;;-144.79;100.00
19827;BME280;10074;52.018;4.726;2023-04-28T02:01:42;46159.09;;;-144.79;100.00
19827;BME280;10074;52.018;4.726;2023-04-28T02:06:43;46183.16;;;-144.79;100.00
19827;BME280;10074;52.018;4.726;2023-04-28T02:11:43;46173.13;;;-144.79;100.00
19827;BME280;10074;52.018;4.726;2023-04-28T02:16:43;46167.13;;;-144.79;100.00
19827;BME280;10074;52.018;4.726;2023-04-28T02:21:43;46201.22;;;-144.79;100.00
19827;BME280;10074;52.018;4.726;2023-04-28T02:26:44;46177.16;;;-144.79;100.00
19827;BME280;10074;52.018;4.726;2023-04-28T02:31:44;46167.13;;;-144.79;100.00
19827;BME280;10074;52.018;4.726;2023-04-28T02:36:45;46193.19;;;-144.79;100.00
19827;BME280;10074;52.018;4.726;2023-04-28T02:41:45;46167.13;;;-144.79;100.00
19827;BME280;10074;52.018;4.726;2023-04-28T02:46:46;46195.19;;;-144.79;100.00
19827;BME280;10074;52.018;4.726;2023-04-28T02:51:46;46189.19;;;-144.79;100.00
19827;BME280;10074;52.018;4.726;2023-04-28T02:56:46;46155.09;;;-144.79;100.00
19827;BME280;10074;52.018;4.726;2023-04-28T03:01:47;46167.13;;;-144.79;100.00
19827;BME280;10074;52.018;4.726;2023-04-28T03:06:47;46151.09;;;-144.79;100.00
19827;BME280;10074;52.018;4.726;2023-04-28T03:11:48;46187.19;;;-144.79;100.00
19827;BME280;10074;52.018;4.726;2023-04-28T03:16:48;46173.13;;;-144.79;100.00
19827;BME280;10074;52.018;4.726;2023-04-28T03:21:48;46153.09;;;-144.79;100.00
19827;BME280;10074;52.018;4.726;2023-04-28T03:26:48;46195.19;;;-144.79;100.00
19827;BME280;10074;52.018;4.726;2023-04-28T03:31:49;46163.13;;;-144.79;100.00
19827;BME280;10074;52.018;4.726;2023-04-28T03:36:50;46167.13;;;-144.79;100.00
19827;BME280;10074;52.018;4.726;2023-04-28T03:41:50;46179.16;;;-144.79;100.00
19827;BME280;10074;52.018;4.726;2023-04-28T03:46:50;46171.13;;;-144.79;100.00
19827;BME280;10074;52.018;4.726;2023-04-28T03:51:51;46183.16;;;-144.79;100.00
19827;BME280;10074;52.018;4.726;2023-04-28T03:56:51;46147.06;;;-144.79;100.00
19827;BME280;10074;52.018;4.726;2023-04-28T04:01:52;46197.19;;;-144.79;100.00
19827;BME280;10074;52.018;4.726;2023-04-28T04:06:52;46185.16;;;-144.79;100.00
19827;BME280;10074;52.018;4.726;2023-04-28T04:11:53;46165.13;;;-144.79;100.00
19827;BME280;10074;52.018;4.726;2023-04-28T04:16:53;46181.16;;;-144.79;100.00
19827;BME280;10074;52.018;4.726;2023-04-28T04:21:54;46165.13;;;-144.79;100.00
19827;BME280;10074;52.018;4.726;2023-04-28T04:26:54;46157.09;;;-144.79;100.00
19827;BME280;10074;52.018;4.726;2023-04-28T04:31:56;46149.06;;;-144.79;100.00
19827;BME280;10074;52.018;4.726;2023-04-28T04:36:56;46141.06;;;-144.79;100.00
19827;BME280;10074;52.018;4.726;2023-04-28T04:41:57;46157.09;;;-144.79;100.00
19827;BME280;10074;52.018;4.726;2023-04-28T04:46:57;46171.13;;;-144.79;100.00
19827;BME280;10074;52.018;4.726;2023-04-28T04:51:57;46153.09;;;-144.79;100.00
19827;BME280;10074;52.018;4.726;2023-04-28T04:56:58;46167.13;;;-144.79;100.00
19827;BME280;10074;52.018;4.726;2023-04-28T05:01:59;46143.06;;;-144.79;100.00
19827;BME280;10074;52.018;4.726;2023-04-28T05:06:59;46163.13;;;-144.79;100.00
19827;BME280;10074;52.018;4.726;2023-04-28T05:11:59;46165.13;;;-144.79;100.00
19827;BME280;10074;52.018;4.726;2023-04-28T05:17:00;46169.13;;;-144.79;100.00
19827;BME280;10074;52.018;4.726;2023-04-28T05:22:00;46163.13;;;-144.79;100.00
19827;BME280;10074;52.018;4.726;2023-04-28T05:27:01;46157.09;;;-144.79;100.00
19827;BME280;10074;52.018;4.726;2023-04-28T05:32:01;46175.16;;;-144.79;100.00
19827;BME280;10074;52.018;4.726;2023-04-28T05:37:01;46153.09;;;-144.79;100.00
19827;BME280;10074;52.018;4.726;2023-04-28T05:42:02;46173.13;;;-144.79;100.00
19827;BME280;10074;52.018;4.726;2023-04-28T05:47:03;46175.16;;;-144.79;100.00
19827;BME280;10074;52.018;4.726;2023-04-28T05:52:03;46177.16;;;-144.79;100.00
19827;BME280;10074;52.018;4.726;2023-04-28T05:57:04;46221.25;;;-144.79;100.00
19827;BME280;10074;52.018;4.726;2023-04-28T06:02:04;46187.19;;;-144.79;100.00
19827;BME280;10074;52.018;4.726;2023-04-28T06:07:04;46163.13;;;-144.79;100.00
19827;BME280;10074;52.018;4.726;2023-04-28T06:12:05;46151.09;;;-144.79;100.00
19827;BME280;10074;52.018;4.726;2023-04-28T06:17:07;46187.19;;;-144.79;100.00
19827;BME280;10074;52.018;4.726;2023-04-28T06:22:07;46199.19;;;-144.79;100.00
19827;BME280;10074;52.018;4.726;2023-04-28T06:27:08;46247.31;;;-144.79;100.00
19827;BME280;10074;52.018;4.726;2023-04-28T06:32:08;46241.31;;;-144.79;100.00
19827;BME280;10074;52.018;4.726;2023-04-28T06:37:08;46259.34;;;-144.79;100.00
19827;BME280;10074;52.018;4.726;2023-04-28T06:42:09;46247.31;;;-144.79;100.00
19827;BME280;10074;52.018;4.726;2023-04-28T06:47:09;46243.31;;;-144.79;100.00
19827;BME280;10074;52.018;4.726;2023-04-28T06:52:09;46227.28;;;-144.79;100.00
19827;BME280;10074;52.018;4.726;2023-04-28T06:57:10;46213.25;;;-144.79;100.00
19827;BME280;10074;52.018;4.726;2023-04-28T07:02:10;46203.22;;;-144.79;100.00
19827;BME280;10074;52.018;4.726;2023-04-28T07:07:10;46175.16;;;-144.79;100.00
19827;BME280;10074;52.018;4.726;2023-04-28T07:12:12;46195.19;;;-144.79;100.00
19827;BME280;10074;52.018;4.726;2023-04-28T07:17:12;46173.13;;;-144.79;100.00
19827;BME280;10074;52.018;4.726;2023-04-28T07:22:12;46163.13;;;-144.79;100.00
19827;BME280;10074;52.018;4.726;2023-04-28T07:27:13;46159.09;;;-144.79;100.00
19827;BME280;10074;52.018;4.726;2023-04-28T07:32:13;46167.13;;;-144.79;100.00
19827;BME280;10074;52.018;4.726;2023-04-28T07:37:13;46147.06;;;-144.79;100.00
19827;BME280;10074;52.018;4.726;2023-04-28T07:42:14;46135.03;;;-144.79;100.00
19827;BME280;10074;52.018;4.726;2023-04-28T07:47:14;46129.03;;;-144.79;100.00
19827;BME280;10074;52.018;4.726;2023-04-28T07:52:15;46151.09;;;-144.79;100.00
19827;BME280;10074;52.018;4.726;2023-04-28T07:57:15;46165.13;;;-144.79;100.00
19827;BME280;10074;52.018;4.726;2023-04-28T08:02:16;46163.13;;;-144.79;100.00
19827;BME280;10074;52.018;4.726;2023-04-28T08:07:18;46163.13;;;-144.79;100.00
19827;BME280;10074;52.018;4.726;2023-04-28T08:12:19;46167.13;;;-144.79;100.00
19827;BME280;10074;52.018;4.726;2023-04-28T08:17:19;46183.16;;;-144.79;100.00
19827;BME280;10074;52.018;4.726;2023-04-28T08:22:20;46199.19;;;-144.79;100.00
19827;BME280;10074;52.018;4.726;2023-04-28T08:27:20;46183.16;;;-144.79;100.00
19827;BME280;10074;52.018;4.726;2023-04-28T08:32:20;46175.16;;;-144.79;100.00
19827;BME280;10074;52.018;4.726;2023-04-28T08:37:20;46227.28;;;-144.79;100.00
19827;BME280;10074;52.018;4.726;2023-04-28T08:42:21;46227.28;;;-144.79;100.00
19827;BME280;10074;52.018;4.726;2023-04-28T08:47:21;46235.28;;;-144.79;100.00
19827;BME280;10074;52.018;4.726;2023-04-28T08:52:23;46233.28;;;-144.79;100.00
19827;BME280;10074;52.018;4.726;2023-04-28T08:57:26;46247.31;;;-144.79;100.00
19827;BME280;10074;52.018;4.726;2023-04-28T09:02:29;46239.31;;;-144.79;100.00
19827;BME280;10074;52.018;4.726;2023-04-28T09:07:29;46241.31;;;-144.79;100.00
19827;BME280;10074;52.018;4.726;2023-04-28T09:12:36;46225.28;;;-144.79;100.00
19827;BME280;10074;52.018;4.726;2023-04-28T09:17:49;46207.22;;;-144.79;100.00
19827;BME280;10074;52.018;4.726;2023-04-28T09:22:51;46235.28;;;-144.79;100.00
19827;BME280;10074;52.018;4.726;2023-04-28T09:27:51;46219.25;;;-144.79;100.00
19827;BME280;10074;52.018;4.726;2023-04-28T09:33:03;46231.28;;;-144.79;100.00
19827;BME280;10074;52.018;4.726;2023-04-28T09:38:04;46237.31;;;-144.79;100.00
19827;BME280;10074;52.018;4.726;2023-04-28T09:43:32;46243.31;;;-144.79;100.00
19827;BME280;10074;52.018;4.726;2023-04-28T09:48:34;46249.34;;;-144.79;100.00
19827;BME280;10074;52.018;4.726;2023-04-28T09:53:35;46249.34;;;-144.79;100.00
19827;BME280;10074;52.018;4.726;2023-04-28T09:58:38;46257.34;;;-144.79;100.00
19827;BME280;10074;52.018;4.726;2023-04-28T10:03:40;46263.38;;;-144.79;100.00
19827;BME280;10074;52.018;4.726;2023-04-28T10:08:41;46263.38;;;-144.79;100.00
19827;BME280;10074;52.018;4.726;2023-04-28T10:13:42;46263.38;;;-144.79;100.00
19827;BME280;10074;52.018;4.726;2023-04-28T10:18:44;46259.34;;;-144.79;100.00
19827;BME280;10074;52.018;4.726;2023-04-28T10:24:14;46259.34;;;-144.79;100.00
19827;BME280;10074;52.018;4.726;2023-04-28T10:29:22;46257.34;;;-144.79;100.00
19827;BME280;10074;52.018;4.726;2023-04-28T10:34:23;46255.34;;;-144.79;100.00
19827;BME280;10074;52.018;4.726;2023-04-28T10:39:24;46259.34;;;-144.79;100.00
19827;BME280;10074;52.018;4.726;2023-04-28T11:00:28;46251.34;;;-144.79;100.00
19827;BME280;10074;52.018;4.726;2023-04-28T11:05:29;46241.31;;;-144.79;100.00
19827;BME280;10074;52.018;4.726;2023-04-28T11:16:09;46253.34;;;-144.79;100.00
19827;BME280;10074;52.018;4.726;2023-04-28T11:21:10;46259.34;;;-144.79;100.00
19827;BME280;10074;52.018;4.726;2023-04-28T11:26:10;46239.31;;;-144.79;100.00
19827;BME280;10074;52.018;4.726;2023-04-28T11:31:14;46241.31;;;-144.79;100.00
19827;BME280;10074;52.018;4.726;2023-04-28T11:36:25;46251.34;;;-144.79;100.00
19827;BME280;10074;52.018;4.726;2023-04-28T11:41:27;46257.34;;;-144.79;100.00
19827;BME280;10074;52.018;4.726;2023-04-28T11:46:27;46247.31;;;-144.79;100.00
19827;BME280;10074;52.018;4.726;2023-04-28T11:51:33;46237.31;;;-144.79;100.00
19827;BME280;10074;52.018;4.726;2023-04-28T11:56:37;46247.31;;;-144.79;100.00
19827;BME280;10074;52.018;4.726;2023-04-28T12:01:51;46247.31;;;-144.79;100.00
19827;BME280;10074;52.018;4.726;2023-04-28T12:07:15;46251.34;;;-144.79;100.00
19827;BME280;10074;52.018;4.726;2023-04-28T12:12:30;46257.34;;;-144.79;100.00
19827;BME280;10074;52.018;4.726;2023-04-28T12:22:43;46255.34;;;-144.79;100.00
19827;BME280;10074;52.018;4.726;2023-04-28T12:28:02;46259.34;;;-144.79;100.00
19827;BME280;10074;52.018;4.726;2023-04-28T12:33:03;46253.34;;;-144.79;100.00
19827;BME280;10074;52.018;4.726;2023-04-28T12:38:03;46255.34;;;-144.79;100.00
19827;BME280;10074;52.018;4.726;2023-04-28T12:43:04;46249.34;;;-144.79;100.00
19827;BME280;10074;52.018;4.726;2023-04-28T12:48:04;46251.34;;;-144.79;100.00
19827;BME280;10074;52.018;4.726;2023-04-28T12:53:05;46239.31;;;-144.79;100.00
19827;BME280;10074;52.018;4.726;2023-04-28T12:58:06;46247.31;;;-144.79;100.00
19827;BME280;10074;52.018;4.726;2023-04-28T13:03:06;46241.31;;;-144.79;100.00
19827;BME280;10074;52.018;4.726;2023-04-28T13:08:08;46253.34;;;-144.79;100.00
19827;BME280;10074;52.018;4.726;2023-04-28T13:13:08;46257.34;;;-144.79;100.00
19827;BME280;10074;52.018;4.726;2023-04-28T13:18:08;46253.34;;;-144.79;100.00
19827;BME280;10074;52.018;4.726;2023-04-28T13:23:08;46245.31;;;-144.79;100.00
19827;BME280;10074;52.018;4.726;2023-04-28T13:28:09;46247.31;;;-144.79;100.00
19827;BME280;10074;52.018;4.726;2023-04-28T13:33:09;46243.31;;;-144.79;100.00
19827;BME280;10074;52.018;4.726;2023-04-28T13:38:09;46247.31;;;-144.79;100.00
19827;BME280;10074;52.018;4.726;2023-04-28T13:43:10;46245.31;;;-144.79;100.00
19827;BME280;10074;52.018;4.726;2023-04-28T13:48:10;46251.34;;;-144.79;100.00
19827;BME280;10074;52.018;4.726;2023-04-28T13:53:11;46245.31;;;-144.79;100.00
19827;BME280;10074;52.018;4.726;2023-04-28T13:58:12;46249.34;;;-144.79;100.00
19827;BME280;10074;52.018;4.726;2023-04-28T14:03:12;46257.34;;;-144.79;100.00
19827;BME280;10074;52.018;4.726;2023-04-28T14:08:12;46253.34;;;-144.79;100.00
19827;BME280;10074;52.018;4.726;2023-04-28T14:13:13;46251.34;;;-144.79;100.00
19827;BME280;10074;52.018;4.726;2023-04-28T14:18:14;46257.34;;;-144.79;100.00
19827;BME280;10074;52.018;4.726;2023-04-28T14:23:14;46255.34;;;-144.79;100.00
19827;BME280;10074;52.018;4.726;2023-04-28T14:28:15;46259.34;;;-144.79;100.00
19827;BME280;10074;52.018;4.726;2023-04-28T14:33:15;46255.34;;;-144.79;100.00
19827;BME280;10074;52.018;4.726;2023-04-28T14:38:16;46253.34;;;-144.79;100.00
19827;BME280;10074;52.018;4.726;2023-04-28T14:43:16;46251.34;;;-144.79;100.00
19827;BME280;10074;52.018;4.726;2023-04-28T14:48:17;46257.34;;;-144.79;100.00
19827;BME280;10074;52.018;4.726;2023-04-28T14:53:17;46257.34;;;-144.79;100.00
19827;BME280;10074;52.018;4.726;2023-04-28T14:58:17;46251.34;;;-144.79;100.00
19827;BME280;10074;52.018;4.726;2023-04-28T15:03:18;46255.34;;;-144.79;100.00
19827;BME280;10074;52.018;4.726;2023-04-28T15:08:18;46257.34;;;-144.79;100.00
19827;BME280;10074;52.018;4.726;2023-04-28T15:13:18;46251.34;;;-144.79;100.00
19827;BME280;10074;52.018;4.726;2023-04-28T15:18:19;46259.34;;;-144.79;100.00
19827;BME280;10074;52.018;4.726;2023-04-28T15:23:20;46261.34;;;-144.79;100.00
19827;BME280;10074;52.018;4.726;2023-04-28T15:28:20;46261.34;;;-144.79;100.00
19827;BME280;10074;52.018;4.726;2023-04-28T15:33:21;46261.34;;;-144.79;100.00
19827;BME280;10074;52.018;4.726;2023-04-28T15:38:23;46263.38;;;-144.79;100.00
19827;BME280;10074;52.018;4.726;2023-04-28T15:43:23;46267.38;;;-144.79;100.00
19827;BME280;10074;52.018;4.726;2023-04-28T15:48:24;46269.38;;;-144.79;100.00
19827;BME280;10074;52.018;4.726;2023-04-28T15:53:24;46261.34;;;-144.79;100.00
19827;BME280;10074;52.018;4.726;2023-04-28T15:58:25;46263.38;;;-144.79;100.00
19827;BME280;10074;52.018;4.726;2023-04-28T16:03:26;46263.38;;;-144.79;100.00
19827;BME280;10074;52.018;4.726;2023-04-28T16:08:26;46267.38;;;-144.79;100.00
19827;BME280;10074;52.018;4.726;2023-04-28T16:13:28;46257.34;;;-144.79;100.00
19827;BME280;10074;52.018;4.726;2023-04-28T16:18:31;46255.34;;;-144.79;100.00
19827;BME280;10074;52.018;4.726;2023-04-28T16:23:32;46257.34;;;-144.79;100.00
19827;BME280;10074;52.018;4.726;2023-04-28T16:28:33;46249.34;;;-144.79;100.00
19827;BME280;10074;52.018;4.726;2023-04-28T16:33:33;46255.34;;;-144.79;100.00
19827;BME280;10074;52.018;4.726;2023-04-28T16:38:33;46255.34;;;-144.79;100.00
19827;BME280;10074;52.018;4.726;2023-04-28T16:43:34;46253.34;;;-144.79;100.00
19827;BME280;10074;52.018;4.726;2023-04-28T16:48:36;46253.34;;;-144.79;100.00
19827;BME280;10074;52.018;4.726;2023-04-28T16:53:36;46247.31;;;-144.79;100.00
19827;BME280;10074;52.018;4.726;2023-04-28T16:58:38;46255.34;;;-144.79;100.00
19827;BME280;10074;52.018;4.726;2023-04-28T17:03:38;46243.31;;;-144.79;100.00
19827;BME280;10074;52.018;4.726;2023-04-28T17:08:40;46253.34;;;-144.79;100.00
19827;BME280;10074;52.018;4.726;2023-04-28T17:13:41;46249.34;;;-144.79;100.00
19827;BME280;10074;52.018;4.726;2023-04-28T17:18:41;46251.34;;;-144.79;100.00
19827;BME280;10074;52.018;4.726;2023-04-28T17:23:42;46253.34;;;-144.79;100.00
19827;BME280;10074;52.018;4.726;2023-04-28T17:28:42;46255.34;;;-144.79;100.00
19827;BME280;10074;52.018;4.726;2023-04-28T17:33:43;46245.31;;;-144.79;100.00
19827;BME280;10074;52.018;4.726;2023-04-28T17:38:43;46249.34;;;-144.79;100.00
19827;BME280;10074;52.018;4.726;2023-04-28T17:43:44;46243.31;;;-144.79;100.00
19827;BME280;10074;52.018;4.726;2023-04-28T17:48:45;46243.31;;;-144.79;100.00
19827;BME280;10074;52.018;4.726;2023-04-28T17:53:45;46251.34;;;-144.79;100.00
19827;BME280;10074;52.018;4.726;2023-04-28T17:58:47;46247.31;;;-144.79;100.00
19827;BME280;10074;52.018;4.726;2023-04-28T18:03:48;46245.31;;;-144.79;100.00
19827;BME280;10074;52.018;4.726;2023-04-28T18:08:48;46247.31;;;-144.79;100.00
19827;BME280;10074;52.018;4.726;2023-04-28T18:13:49;46239.31;;;-144.79;100.00
19827;BME280;10074;52.018;4.726;2023-04-28T18:18:49;46251.34;;;-144.79;100.00
19827;BME280;10074;52.018;4.726;2023-04-28T18:23:49;46249.34;;;-144.79;100.00
19827;BME280;10074;52.018;4.726;2023-04-28T18:28:50;46247.31;;;-144.79;100.00
19827;BME280;10074;52.018;4.726;2023-04-28T18:33:50;46245.31;;;-144.79;100.00
19827;BME280;10074;52.018;4.726;2023-04-28T18:38:51;46247.31;;;-144.79;100.00
19827;BME280;10074;52.018;4.726;2023-04-28T18:43:51;46239.31;;;-144.79;100.00
19827;BME280;10074;52.018;4.726;2023-04-28T18:48:52;46243.31;;;-144.79;100.00
19827;BME280;10074;52.018;4.726;2023-04-28T18:53:52;46243.31;;;-144.79;100.00
19827;BME280;10074;52.018;4.726;2023-04-28T18:58:52;46239.31;;;-144.79;100.00
19827;BME280;10074;52.018;4.726;2023-04-28T19:03:52;46237.31;;;-144.79;100.00
19827;BME280;10074;52.018;4.726;2023-04-28T19:08:55;46235.28;;;-144.79;100.00
19827;BME280;10074;52.018;4.726;2023-04-28T19:13:56;46245.31;;;-144.79;100.00
19827;BME280;10074;52.018;4.726;2023-04-28T19:18:56;46239.31;;;-144.79;100.00
19827;BME280;10074;52.018;4.726;2023-04-28T19:23:57;46243.31;;;-144.79;100.00
19827;BME280;10074;52.018;4.726;2023-04-28T19:28:57;46235.28;;;-144.79;100.00
19827;BME280;10074;52.018;4.726;2023-04-28T19:33:57;46235.28;;;-144.79;100.00
19827;BME280;10074;52.018;4.726;2023-04-28T19:38:57;46239.31;;;-144.79;100.00
19827;BME280;10074;52.018;4.726;2023-04-28T19:43:58;46239.31;;;-144.79;100.00
19827;BME280;10074;52.018;4.726;2023-04-28T19:48:58;46247.31;;;-144.79;100.00
19827;BME280;10074;52.018;4.726;2023-04-28T19:53:59;46237.31;;;-144.79;100.00
19827;BME280;10074;52.018;4.726;2023-04-28T19:58:59;46241.31;;;-144.79;100.00
19827;BME280;10074;52.018;4.726;2023-04-28T20:03:59;46229.28;;;-144.79;100.00
19827;BME280;10074;52.018;4.726;2023-04-28T20:09:01;46233.28;;;-144.79;100.00
19827;BME280;10074;52.018;4.726;2023-04-28T20:14:01;46251.34;;;-144.79;100.00
19827;BME280;10074;52.018;4.726;2023-04-28T20:19:01;46235.28;;;-144.79;100.00
19827;BME280;10074;52.018;4.726;2023-04-28T20:24:02;46235.28;;;-144.79;100.00
19827;BME280;10074;52.018;4.726;2023-04-28T20:29:02;46239.31;;;-144.79;100.00
19827;BME280;10074;52.018;4.726;2023-04-28T20:34:02;46241.31;;;-144.79;100.00
19827;BME280;10074;52.018;4.726;2023-04-28T20:39:03;46243.31;;;-144.79;100.00
19827;BME280;10074;52.018;4.726;2023-04-28T20:44:04;46251.34;;;-144.79;100.00
19827;BME280;10074;52.018;4.726;2023-04-28T20:49:04;46237.31;;;-144.79;100.00
19827;BME280;10074;52.018;4.726;2023-04-28T20:54:05;46233.28;;;-144.79;100.00
19827;BME280;10074;52.018;4.726;2023-04-28T20:59:05;46243.31;;;-144.79;100.00
19827;BME280;10074;52.018;4.726;2023-04-28T21:04:05;46241.31;;;-144.79;100.00
19827;BME280;10074;52.018;4.726;2023-04-28T21:09:06;46241.31;;;-144.79;100.00
19827;BME280;10074;52.018;4.726;2023-04-28T21:14:06;46241.31;;;-144.79;100.00
19827;BME280;10074;52.018;4.726;2023-04-28T21:19:06;46239.31;;;-144.79;100.00
19827;BME280;10074;52.018;4.726;2023-04-28T21:24:06;46239.31;;;-144.79;100.00
19827;BME280;10074;52.018;4.726;2023-04-28T21:29:08;46245.31;;;-144.79;100.00
19827;BME280;10074;52.018;4.726;2023-04-28T21:34:08;46243.31;;;-144.79;100.00
19827;BME280;10074;52.018;4.726;2023-04-28T21:39:09;46245.31;;;-144.79;100.00
19827;BME280;10074;52.018;4.726;2023-04-28T21:44:09;46253.34;;;-144.79;100.00
19827;BME280;10074;52.018;4.726;2023-04-28T21:49:10;46239.31;;;-144.79;100.00
19827;BME280;10074;52.018;4.726;2023-04-28T21:54:10;46247.31;;;-144.79;100.00
19827;BME280;10074;52.018;4.726;2023-04-28T21:59:11;46245.31;;;-144.79;100.00
19827;BME280;10074;52.018;4.726;2023-04-28T22:04:11;46237.31;;;-144.79;100.00
19827;BME280;10074;52.018;4.726;2023-04-28T22:09:12;46249.34;;;-144.79;100.00
19827;BME280;10074;52.018;4.726;2023-04-28T22:14:12;46241.31;;;-144.79;100.00
19827;BME280;10074;52.018;4.726;2023-04-28T22:19:12;46243.31;;;-144.79;100.00
19827;BME280;10074;52.018;4.726;2023-04-28T22:24:13;46251.34;;;-144.79;100.00
19827;BME280;10074;52.018;4.726;2023-04-28T22:29:13;46247.31;;;-144.79;100.00
19827;BME280;10074;52.018;4.726;2023-04-28T22:34:13;46235.28;;;-144.79;100.00
19827;BME280;10074;52.018;4.726;2023-04-28T22:39:14;46235.28;;;-144.79;100.00
19827;BME280;10074;52.018;4.726;2023-04-28T22:44:16;46243.31;;;-144.79;100.00
19827;BME280;10074;52.018;4.726;2023-04-28T22:49:16;46251.34;;;-144.79;100.00
19827;BME280;10074;52.018;4.726;2023-04-28T22:54:16;46247.31;;;-144.79;100.00
19827;BME280;10074;52.018;4.726;2023-04-28T22:59:17;46243.31;;;-144.79;100.00
19827;BME280;10074;52.018;4.726;2023-04-28T23:04:17;46261.34;;;-144.79;100.00
19827;BME280;10074;52.018;4.726;2023-04-28T23:09:19;46247.31;;;-144.79;100.00
19827;BME280;10074;52.018;4.726;2023-04-28T23:14:19;46245.31;;;-144.79;100.00
19827;BME280;10074;52.018;4.726;2023-04-28T23:19:20;46247.31;;;-144.79;100.00
19827;BME280;10074;52.018;4.726;2023-04-28T23:24:20;46247.31;;;-144.79;100.00
19827;BME280;10074;52.018;4.726;2023-04-28T23:29:20;46243.31;;;-144.79;100.00
19827;BME280;10074;52.018;4.726;2023-04-28T23:34:21;46241.31;;;-144.79;100.00
19827;BME280;10074;52.018;4.726;2023-04-28T23:39:21;46247.31;;;-144.79;100.00
19827;BME280;10074;52.018;4.726;2023-04-28T23:44:21;46245.31;;;-144.79;100.00
19827;BME280;10074;52.018;4.726;2023-04-28T23:49:22;46235.28;;;-144.79;100.00
19827;BME280;10074;52.018;4.726;2023-04-28T23:54:22;46251.34;;;-144.79;100.00
19827;BME280;10074;52.018;4.726;2023-04-28T23:59:23;46243.31;;;-144.79;100.00
